sensor_id;sensor_type;location;lat;lon;timestamp;P1;durP1;ratioP1;P2;durP2;ratioP2
32455;SDS011;18912;43.270;27.942;2023-01-29T00:01:27;23.27;;;10.95;;
32455;SDS011;18912;43.270;27.942;2023-01-29T00:03:54;25.60;;;11.10;;
32455;SDS011;18912;43.270;27.942;2023-01-29T00:06:19;23.13;;;10.73;;
32455;SDS011;18912;43.270;27.942;2023-01-29T00:08:45;23.13;;;10.17;;
32455;SDS011;18912;43.270;27.942;2023-01-29T00:11:10;26.38;;;10.48;;
32455;SDS011;18912;43.270;27.942;2023-01-29T00:13:36;22.13;;;10.57;;
32455;SDS011;18912;43.270;27.942;2023-01-29T00:16:02;20.80;;;9.53;;
32455;SDS011;18912;43.270;27.942;2023-01-29T00:20:54;20.20;;;9.15;;
32455;SDS011;18912;43.270;27.942;2023-01-29T00:23:19;21.23;;;9.95;;
32455;SDS011;18912;43.270;27.942;2023-01-29T00:25:45;23.48;;;10.52;;
32455;SDS011;18912;43.270;27.942;2023-01-29T00:28:11;21.80;;;10.18;;
32455;SDS011;18912;43.270;27.942;2023-01-29T00:33:03;17.80;;;8.35;;
32455;SDS011;18912;43.270;27.942;2023-01-29T00:35:29;18.70;;;8.48;;
32455;SDS011;18912;43.270;27.942;2023-01-29T00:37:55;26.90;;;9.82;;
32455;SDS011;18912;43.270;27.942;2023-01-29T00:40:22;23.33;;;9.57;;
32455;SDS011;18912;43.270;27.942;2023-01-29T00:42:48;23.13;;;10.05;;
32455;SDS011;18912;43.270;27.942;2023-01-29T00:45:32;23.30;;;10.05;;
32455;SDS011;18912;43.270;27.942;2023-01-29T00:47:58;19.05;;;8.85;;
32455;SDS011;18912;43.270;27.942;2023-01-29T00:50:24;17.38;;;8.32;;
32455;SDS011;18912;43.270;27.942;2023-01-29T00:52:49;20.43;;;9.03;;
32455;SDS011;18912;43.270;27.942;2023-01-29T00:55:16;20.25;;;8.05;;
32455;SDS011;18912;43.270;27.942;2023-01-29T00:57:42;16.40;;;7.68;;
32455;SDS011;18912;43.270;27.942;2023-01-29T01:00:09;18.50;;;7.50;;
32455;SDS011;18912;43.270;27.942;2023-01-29T01:02:36;12.98;;;6.90;;
32455;SDS011;18912;43.270;27.942;2023-01-29T01:05:20;14.00;;;7.30;;
32455;SDS011;18912;43.270;27.942;2023-01-29T01:07:49;13.17;;;6.83;;
32455;SDS011;18912;43.270;27.942;2023-01-29T01:10:37;12.30;;;5.75;;
32455;SDS011;18912;43.270;27.942;2023-01-29T01:13:04;14.48;;;6.72;;
32455;SDS011;18912;43.270;27.942;2023-01-29T01:15:32;10.82;;;5.85;;
32455;SDS011;18912;43.270;27.942;2023-01-29T01:17:59;15.07;;;7.18;;
32455;SDS011;18912;43.270;27.942;2023-01-29T01:20:26;14.15;;;6.70;;
32455;SDS011;18912;43.270;27.942;2023-01-29T01:22:53;12.63;;;6.50;;
32455;SDS011;18912;43.270;27.942;2023-01-29T01:25:18;16.33;;;6.77;;
32455;SDS011;18912;43.270;27.942;2023-01-29T01:27:44;12.68;;;6.20;;
32455;SDS011;18912;43.270;27.942;2023-01-29T01:30:11;14.63;;;6.47;;
32455;SDS011;18912;43.270;27.942;2023-01-29T01:32:38;14.65;;;6.30;;
32455;SDS011;18912;43.270;27.942;2023-01-29T01:37:30;12.88;;;6.70;;
32455;SDS011;18912;43.270;27.942;2023-01-29T01:39:56;16.13;;;7.33;;
32455;SDS011;18912;43.270;27.942;2023-01-29T01:42:28;15.63;;;6.57;;
32455;SDS011;18912;43.270;27.942;2023-01-29T01:45:01;13.57;;;5.78;;
32455;SDS011;18912;43.270;27.942;2023-01-29T01:50:06;12.55;;;6.00;;
32455;SDS011;18912;43.270;27.942;2023-01-29T01:52:39;15.00;;;6.85;;
32455;SDS011;18912;43.270;27.942;2023-01-29T01:55:09;13.27;;;6.53;;
32455;SDS011;18912;43.270;27.942;2023-01-29T01:57:38;13.80;;;6.95;;
32455;SDS011;18912;43.270;27.942;2023-01-29T02:00:07;17.48;;;7.47;;
32455;SDS011;18912;43.270;27.942;2023-01-29T02:02:40;16.02;;;7.60;;
32455;SDS011;18912;43.270;27.942;2023-01-29T02:05:26;14.73;;;7.03;;
32455;SDS011;18912;43.270;27.942;2023-01-29T02:08:11;18.40;;;7.80;;
32455;SDS011;18912;43.270;27.942;2023-01-29T02:10:57;16.38;;;7.65;;
32455;SDS011;18912;43.270;27.942;2023-01-29T02:13:22;15.57;;;7.33;;
32455;SDS011;18912;43.270;27.942;2023-01-29T02:15:48;13.82;;;6.53;;
32455;SDS011;18912;43.270;27.942;2023-01-29T02:18:14;15.82;;;7.60;;
32455;SDS011;18912;43.270;27.942;2023-01-29T02:20:43;18.85;;;8.43;;
32455;SDS011;18912;43.270;27.942;2023-01-29T02:23:47;14.63;;;7.70;;
32455;SDS011;18912;43.270;27.942;2023-01-29T02:26:32;15.52;;;6.80;;
32455;SDS011;18912;43.270;27.942;2023-01-29T02:29:17;17.92;;;7.63;;
32455;SDS011;18912;43.270;27.942;2023-01-29T02:32:06;14.85;;;7.20;;
32455;SDS011;18912;43.270;27.942;2023-01-29T02:48:40;17.63;;;7.18;;
32455;SDS011;18912;43.270;27.942;2023-01-29T02:51:15;12.65;;;6.18;;
32455;SDS011;18912;43.270;27.942;2023-01-29T02:53:50;17.58;;;8.15;;
32455;SDS011;18912;43.270;27.942;2023-01-29T02:56:26;17.23;;;8.25;;
32455;SDS011;18912;43.270;27.942;2023-01-29T02:59:08;19.33;;;8.40;;
32455;SDS011;18912;43.270;27.942;2023-01-29T03:01:41;18.35;;;8.15;;
32455;SDS011;18912;43.270;27.942;2023-01-29T03:04:15;16.05;;;8.05;;
32455;SDS011;18912;43.270;27.942;2023-01-29T03:06:45;18.58;;;8.93;;
32455;SDS011;18912;43.270;27.942;2023-01-29T03:12:09;18.33;;;9.07;;
32455;SDS011;18912;43.270;27.942;2023-01-29T03:14:57;18.38;;;7.82;;
32455;SDS011;18912;43.270;27.942;2023-01-29T03:17:39;18.92;;;8.68;;
32455;SDS011;18912;43.270;27.942;2023-01-29T03:20:12;16.55;;;8.32;;
32455;SDS011;18912;43.270;27.942;2023-01-29T03:22:43;18.65;;;7.63;;
32455;SDS011;18912;43.270;27.942;2023-01-29T03:25:14;17.38;;;8.50;;
32455;SDS011;18912;43.270;27.942;2023-01-29T03:28:00;18.30;;;7.97;;
32455;SDS011;18912;43.270;27.942;2023-01-29T03:30:47;20.00;;;7.93;;
32455;SDS011;18912;43.270;27.942;2023-01-29T03:33:41;19.08;;;8.38;;
32455;SDS011;18912;43.270;27.942;2023-01-29T03:36:12;16.08;;;7.95;;
32455;SDS011;18912;43.270;27.942;2023-01-29T03:38:43;16.23;;;8.23;;
32455;SDS011;18912;43.270;27.942;2023-01-29T03:46:25;21.90;;;8.75;;
32455;SDS011;18912;43.270;27.942;2023-01-29T03:52:01;18.77;;;7.97;;
32455;SDS011;18912;43.270;27.942;2023-01-29T03:54:46;17.75;;;8.63;;
32455;SDS011;18912;43.270;27.942;2023-01-29T03:57:30;21.40;;;9.43;;
32455;SDS011;18912;43.270;27.942;2023-01-29T04:00:05;21.73;;;9.65;;
32455;SDS011;18912;43.270;27.942;2023-01-29T04:02:41;23.33;;;9.35;;
32455;SDS011;18912;43.270;27.942;2023-01-29T04:05:15;19.45;;;9.07;;
32455;SDS011;18912;43.270;27.942;2023-01-29T04:07:44;21.85;;;9.48;;
32455;SDS011;18912;43.270;27.942;2023-01-29T04:10:12;20.00;;;9.38;;
32455;SDS011;18912;43.270;27.942;2023-01-29T04:12:43;23.85;;;9.80;;
32455;SDS011;18912;43.270;27.942;2023-01-29T04:15:14;21.70;;;9.00;;
32455;SDS011;18912;43.270;27.942;2023-01-29T04:17:46;19.02;;;9.43;;
32455;SDS011;18912;43.270;27.942;2023-01-29T04:20:15;21.58;;;9.13;;
32455;SDS011;18912;43.270;27.942;2023-01-29T04:22:46;16.13;;;8.15;;
32455;SDS011;18912;43.270;27.942;2023-01-29T04:25:17;22.73;;;9.07;;
32455;SDS011;18912;43.270;27.942;2023-01-29T04:44:21;20.45;;;9.50;;
32455;SDS011;18912;43.270;27.942;2023-01-29T04:55:01;22.77;;;9.27;;
32455;SDS011;18912;43.270;27.942;2023-01-29T05:00:15;23.33;;;10.13;;
32455;SDS011;18912;43.270;27.942;2023-01-29T05:02:45;19.13;;;9.20;;
32455;SDS011;18912;43.270;27.942;2023-01-29T05:05:11;19.85;;;8.68;;
32455;SDS011;18912;43.270;27.942;2023-01-29T05:07:38;17.48;;;9.05;;
32455;SDS011;18912;43.270;27.942;2023-01-29T05:10:07;22.05;;;9.23;;
32455;SDS011;18912;43.270;27.942;2023-01-29T05:12:35;19.30;;;8.55;;
32455;SDS011;18912;43.270;27.942;2023-01-29T05:15:02;20.27;;;9.82;;
32455;SDS011;18912;43.270;27.942;2023-01-29T05:17:33;15.85;;;7.50;;
32455;SDS011;18912;43.270;27.942;2023-01-29T05:19:59;19.90;;;8.73;;
32455;SDS011;18912;43.270;27.942;2023-01-29T05:22:24;17.53;;;8.53;;
32455;SDS011;18912;43.270;27.942;2023-01-29T05:24:51;17.70;;;8.88;;
32455;SDS011;18912;43.270;27.942;2023-01-29T05:27:20;18.77;;;8.57;;
32455;SDS011;18912;43.270;27.942;2023-01-29T05:30:10;17.27;;;8.63;;
32455;SDS011;18912;43.270;27.942;2023-01-29T05:32:36;17.58;;;8.52;;
32455;SDS011;18912;43.270;27.942;2023-01-29T05:35:04;19.52;;;9.07;;
32455;SDS011;18912;43.270;27.942;2023-01-29T05:37:30;16.88;;;8.30;;
32455;SDS011;18912;43.270;27.942;2023-01-29T05:39:55;22.47;;;8.93;;
32455;SDS011;18912;43.270;27.942;2023-01-29T05:42:21;20.33;;;8.20;;
32455;SDS011;18912;43.270;27.942;2023-01-29T05:44:46;17.50;;;8.10;;
32455;SDS011;18912;43.270;27.942;2023-01-29T05:47:12;19.47;;;7.83;;
32455;SDS011;18912;43.270;27.942;2023-01-29T05:49:37;20.67;;;9.07;;
32455;SDS011;18912;43.270;27.942;2023-01-29T05:52:03;17.30;;;8.00;;
32455;SDS011;18912;43.270;27.942;2023-01-29T05:54:28;26.00;;;9.38;;
32455;SDS011;18912;43.270;27.942;2023-01-29T05:56:54;16.75;;;8.00;;
32455;SDS011;18912;43.270;27.942;2023-01-29T05:59:19;19.07;;;8.23;;
32455;SDS011;18912;43.270;27.942;2023-01-29T06:01:45;16.63;;;7.80;;
32455;SDS011;18912;43.270;27.942;2023-01-29T06:04:10;20.40;;;8.77;;
32455;SDS011;18912;43.270;27.942;2023-01-29T06:06:36;19.50;;;8.40;;
32455;SDS011;18912;43.270;27.942;2023-01-29T06:09:01;17.97;;;8.43;;
32455;SDS011;18912;43.270;27.942;2023-01-29T06:11:27;16.08;;;7.80;;
32455;SDS011;18912;43.270;27.942;2023-01-29T06:13:52;14.57;;;7.23;;
32455;SDS011;18912;43.270;27.942;2023-01-29T06:16:18;20.00;;;8.75;;
32455;SDS011;18912;43.270;27.942;2023-01-29T06:18:43;18.40;;;8.03;;
32455;SDS011;18912;43.270;27.942;2023-01-29T06:21:10;19.00;;;9.27;;
32455;SDS011;18912;43.270;27.942;2023-01-29T06:23:37;19.73;;;8.15;;
32455;SDS011;18912;43.270;27.942;2023-01-29T06:26:03;19.27;;;8.25;;
32455;SDS011;18912;43.270;27.942;2023-01-29T06:28:31;18.65;;;8.38;;
32455;SDS011;18912;43.270;27.942;2023-01-29T06:30:57;18.02;;;7.88;;
32455;SDS011;18912;43.270;27.942;2023-01-29T06:33:23;21.00;;;8.55;;
32455;SDS011;18912;43.270;27.942;2023-01-29T06:35:54;18.85;;;8.85;;
32455;SDS011;18912;43.270;27.942;2023-01-29T06:38:20;21.88;;;8.70;;
32455;SDS011;18912;43.270;27.942;2023-01-29T06:40:46;24.10;;;9.30;;
32455;SDS011;18912;43.270;27.942;2023-01-29T06:43:12;22.40;;;9.33;;
32455;SDS011;18912;43.270;27.942;2023-01-29T06:45:37;21.57;;;9.47;;
32455;SDS011;18912;43.270;27.942;2023-01-29T06:48:02;18.20;;;7.47;;
32455;SDS011;18912;43.270;27.942;2023-01-29T06:50:28;22.37;;;8.90;;
32455;SDS011;18912;43.270;27.942;2023-01-29T06:52:53;21.37;;;8.60;;
32455;SDS011;18912;43.270;27.942;2023-01-29T06:55:19;24.13;;;8.23;;
32455;SDS011;18912;43.270;27.942;2023-01-29T06:57:44;18.57;;;8.43;;
32455;SDS011;18912;43.270;27.942;2023-01-29T07:00:10;18.27;;;8.00;;
32455;SDS011;18912;43.270;27.942;2023-01-29T07:02:36;19.80;;;8.55;;
32455;SDS011;18912;43.270;27.942;2023-01-29T07:05:01;21.73;;;8.60;;
32455;SDS011;18912;43.270;27.942;2023-01-29T07:07:29;20.50;;;9.05;;
32455;SDS011;18912;43.270;27.942;2023-01-29T07:09:54;19.80;;;9.03;;
32455;SDS011;18912;43.270;27.942;2023-01-29T07:12:20;16.90;;;8.10;;
32455;SDS011;18912;43.270;27.942;2023-01-29T07:14:45;20.83;;;8.50;;
32455;SDS011;18912;43.270;27.942;2023-01-29T07:17:11;20.57;;;7.87;;
32455;SDS011;18912;43.270;27.942;2023-01-29T07:19:36;17.13;;;7.53;;
32455;SDS011;18912;43.270;27.942;2023-01-29T07:22:05;17.77;;;7.07;;
32455;SDS011;18912;43.270;27.942;2023-01-29T07:24:30;18.13;;;8.25;;
32455;SDS011;18912;43.270;27.942;2023-01-29T07:26:56;23.83;;;8.93;;
32455;SDS011;18912;43.270;27.942;2023-01-29T07:29:22;16.87;;;7.27;;
32455;SDS011;18912;43.270;27.942;2023-01-29T07:31:47;19.83;;;9.25;;
32455;SDS011;18912;43.270;27.942;2023-01-29T07:34:13;16.90;;;8.00;;
32455;SDS011;18912;43.270;27.942;2023-01-29T07:36:38;17.43;;;7.10;;
32455;SDS011;18912;43.270;27.942;2023-01-29T07:39:04;18.00;;;7.83;;
32455;SDS011;18912;43.270;27.942;2023-01-29T07:41:29;20.63;;;7.90;;
32455;SDS011;18912;43.270;27.942;2023-01-29T07:43:55;15.10;;;6.70;;
32455;SDS011;18912;43.270;27.942;2023-01-29T07:46:20;17.20;;;8.57;;
32455;SDS011;18912;43.270;27.942;2023-01-29T07:48:45;17.00;;;7.67;;
32455;SDS011;18912;43.270;27.942;2023-01-29T07:51:11;16.70;;;7.33;;
32455;SDS011;18912;43.270;27.942;2023-01-29T07:53:36;13.30;;;6.73;;
32455;SDS011;18912;43.270;27.942;2023-01-29T07:56:02;18.10;;;6.82;;
32455;SDS011;18912;43.270;27.942;2023-01-29T07:58:28;19.33;;;8.63;;
32455;SDS011;18912;43.270;27.942;2023-01-29T08:00:53;15.33;;;7.13;;
32455;SDS011;18912;43.270;27.942;2023-01-29T08:03:19;13.30;;;6.63;;
32455;SDS011;18912;43.270;27.942;2023-01-29T08:05:44;17.65;;;7.70;;
32455;SDS011;18912;43.270;27.942;2023-01-29T08:08:10;18.80;;;7.45;;
32455;SDS011;18912;43.270;27.942;2023-01-29T08:10:37;20.85;;;7.47;;
32455;SDS011;18912;43.270;27.942;2023-01-29T08:13:04;15.30;;;7.18;;
32455;SDS011;18912;43.270;27.942;2023-01-29T08:17:55;18.08;;;7.30;;
32455;SDS011;18912;43.270;27.942;2023-01-29T08:20:21;16.65;;;6.80;;
32455;SDS011;18912;43.270;27.942;2023-01-29T08:22:47;16.88;;;6.90;;
32455;SDS011;18912;43.270;27.942;2023-01-29T08:25:13;15.27;;;6.70;;
32455;SDS011;18912;43.270;27.942;2023-01-29T08:27:40;16.50;;;7.15;;
32455;SDS011;18912;43.270;27.942;2023-01-29T08:32:32;12.25;;;6.57;;
32455;SDS011;18912;43.270;27.942;2023-01-29T08:34:58;13.77;;;6.23;;
32455;SDS011;18912;43.270;27.942;2023-01-29T08:37:23;21.57;;;10.17;;
32455;SDS011;18912;43.270;27.942;2023-01-29T08:39:49;17.23;;;6.78;;
32455;SDS011;18912;43.270;27.942;2023-01-29T08:42:14;17.00;;;6.77;;
32455;SDS011;18912;43.270;27.942;2023-01-29T08:44:40;14.87;;;7.50;;
32455;SDS011;18912;43.270;27.942;2023-01-29T08:47:05;16.50;;;7.40;;
32455;SDS011;18912;43.270;27.942;2023-01-29T08:49:31;19.70;;;7.70;;
32455;SDS011;18912;43.270;27.942;2023-01-29T08:51:56;16.43;;;7.20;;
32455;SDS011;18912;43.270;27.942;2023-01-29T08:54:22;15.40;;;6.30;;
32455;SDS011;18912;43.270;27.942;2023-01-29T08:56:48;16.00;;;6.97;;
32455;SDS011;18912;43.270;27.942;2023-01-29T08:59:14;13.85;;;6.63;;
32455;SDS011;18912;43.270;27.942;2023-01-29T09:01:40;15.88;;;7.30;;
32455;SDS011;18912;43.270;27.942;2023-01-29T09:04:06;14.30;;;6.43;;
32455;SDS011;18912;43.270;27.942;2023-01-29T09:06:31;14.90;;;6.60;;
32455;SDS011;18912;43.270;27.942;2023-01-29T09:08:57;12.93;;;6.43;;
32455;SDS011;18912;43.270;27.942;2023-01-29T09:11:22;15.70;;;6.20;;
32455;SDS011;18912;43.270;27.942;2023-01-29T09:13:48;12.50;;;6.10;;
32455;SDS011;18912;43.270;27.942;2023-01-29T09:16:13;33.43;;;12.40;;
32455;SDS011;18912;43.270;27.942;2023-01-29T09:18:39;15.63;;;6.70;;
32455;SDS011;18912;43.270;27.942;2023-01-29T09:21:04;16.13;;;6.93;;
32455;SDS011;18912;43.270;27.942;2023-01-29T09:23:30;14.07;;;7.03;;
32455;SDS011;18912;43.270;27.942;2023-01-29T09:25:56;12.93;;;5.97;;
32455;SDS011;18912;43.270;27.942;2023-01-29T09:28:21;15.33;;;6.50;;
32455;SDS011;18912;43.270;27.942;2023-01-29T09:30:47;18.98;;;8.27;;
32455;SDS011;18912;43.270;27.942;2023-01-29T09:33:13;16.10;;;6.10;;
32455;SDS011;18912;43.270;27.942;2023-01-29T09:35:39;17.30;;;7.22;;
32455;SDS011;18912;43.270;27.942;2023-01-29T09:38:06;15.20;;;7.18;;
32455;SDS011;18912;43.270;27.942;2023-01-29T09:43:26;14.27;;;6.47;;
32455;SDS011;18912;43.270;27.942;2023-01-29T09:46:05;14.32;;;7.05;;
32455;SDS011;18912;43.270;27.942;2023-01-29T09:48:56;15.88;;;6.90;;
32455;SDS011;18912;43.270;27.942;2023-01-29T09:51:27;15.18;;;6.75;;
32455;SDS011;18912;43.270;27.942;2023-01-29T09:54:01;17.23;;;7.05;;
32455;SDS011;18912;43.270;27.942;2023-01-29T09:56:38;17.00;;;7.75;;
32455;SDS011;18912;43.270;27.942;2023-01-29T09:59:06;16.25;;;8.07;;
32455;SDS011;18912;43.270;27.942;2023-01-29T10:01:36;14.43;;;6.80;;
32455;SDS011;18912;43.270;27.942;2023-01-29T10:21:07;14.98;;;6.07;;
32455;SDS011;18912;43.270;27.942;2023-01-29T10:23:58;15.00;;;5.85;;
32455;SDS011;18912;43.270;27.942;2023-01-29T10:26:36;13.48;;;6.60;;
32455;SDS011;18912;43.270;27.942;2023-01-29T10:29:04;14.25;;;6.72;;
32455;SDS011;18912;43.270;27.942;2023-01-29T10:31:32;19.92;;;6.63;;
32455;SDS011;18912;43.270;27.942;2023-01-29T10:36:44;16.85;;;7.15;;
32455;SDS011;18912;43.270;27.942;2023-01-29T10:39:21;13.13;;;6.75;;
32455;SDS011;18912;43.270;27.942;2023-01-29T10:55:40;17.85;;;7.70;;
32455;SDS011;18912;43.270;27.942;2023-01-29T10:58:18;17.02;;;7.78;;
32455;SDS011;18912;43.270;27.942;2023-01-29T11:00:54;17.52;;;7.47;;
32455;SDS011;18912;43.270;27.942;2023-01-29T11:03:23;16.50;;;6.60;;
32455;SDS011;18912;43.270;27.942;2023-01-29T11:08:55;17.42;;;7.80;;
32455;SDS011;18912;43.270;27.942;2023-01-29T11:14:02;16.73;;;6.57;;
32455;SDS011;18912;43.270;27.942;2023-01-29T11:16:40;16.15;;;7.22;;
32455;SDS011;18912;43.270;27.942;2023-01-29T11:19:08;16.73;;;8.18;;
32455;SDS011;18912;43.270;27.942;2023-01-29T11:21:48;18.52;;;8.65;;
32455;SDS011;18912;43.270;27.942;2023-01-29T11:24:14;18.55;;;8.23;;
32455;SDS011;18912;43.270;27.942;2023-01-29T11:26:41;20.17;;;8.30;;
32455;SDS011;18912;43.270;27.942;2023-01-29T11:32:43;16.88;;;7.55;;
32455;SDS011;18912;43.270;27.942;2023-01-29T11:37:34;20.25;;;8.07;;
32455;SDS011;18912;43.270;27.942;2023-01-29T11:40:21;19.15;;;8.90;;
32455;SDS011;18912;43.270;27.942;2023-01-29T11:43:10;16.88;;;7.72;;
32455;SDS011;18912;43.270;27.942;2023-01-29T11:45:37;19.60;;;8.25;;
32455;SDS011;18912;43.270;27.942;2023-01-29T11:48:04;19.73;;;8.35;;
32455;SDS011;18912;43.270;27.942;2023-01-29T11:50:35;24.45;;;8.32;;
32455;SDS011;18912;43.270;27.942;2023-01-29T11:53:01;17.75;;;8.38;;
32455;SDS011;18912;43.270;27.942;2023-01-29T11:55:31;20.55;;;8.65;;
32455;SDS011;18912;43.270;27.942;2023-01-29T11:58:03;19.58;;;9.00;;
32455;SDS011;18912;43.270;27.942;2023-01-29T12:00:36;22.13;;;9.15;;
32455;SDS011;18912;43.270;27.942;2023-01-29T12:08:52;19.15;;;8.15;;
32455;SDS011;18912;43.270;27.942;2023-01-29T12:11:23;18.65;;;8.27;;
32455;SDS011;18912;43.270;27.942;2023-01-29T12:13:56;17.50;;;7.90;;
32455;SDS011;18912;43.270;27.942;2023-01-29T12:16:30;16.60;;;7.68;;
32455;SDS011;18912;43.270;27.942;2023-01-29T12:19:04;21.42;;;8.48;;
32455;SDS011;18912;43.270;27.942;2023-01-29T12:21:57;21.67;;;8.35;;
32455;SDS011;18912;43.270;27.942;2023-01-29T12:24:40;19.35;;;8.55;;
32455;SDS011;18912;43.270;27.942;2023-01-29T12:27:35;22.35;;;7.88;;
32455;SDS011;18912;43.270;27.942;2023-01-29T12:35:47;17.88;;;7.43;;
32455;SDS011;18912;43.270;27.942;2023-01-29T12:38:19;18.48;;;7.53;;
32455;SDS011;18912;43.270;27.942;2023-01-29T12:40:52;17.38;;;7.60;;
32455;SDS011;18912;43.270;27.942;2023-01-29T12:43:37;18.80;;;7.55;;
32455;SDS011;18912;43.270;27.942;2023-01-29T12:46:12;17.05;;;7.25;;
32455;SDS011;18912;43.270;27.942;2023-01-29T12:48:50;17.48;;;7.43;;
32455;SDS011;18912;43.270;27.942;2023-01-29T12:51:21;17.95;;;7.65;;
32455;SDS011;18912;43.270;27.942;2023-01-29T12:53:58;15.10;;;7.80;;
32455;SDS011;18912;43.270;27.942;2023-01-29T12:56:37;18.92;;;7.97;;
32455;SDS011;18912;43.270;27.942;2023-01-29T13:01:53;17.77;;;7.63;;
32455;SDS011;18912;43.270;27.942;2023-01-29T13:07:08;16.05;;;7.40;;
32455;SDS011;18912;43.270;27.942;2023-01-29T13:09:34;24.13;;;8.35;;
32455;SDS011;18912;43.270;27.942;2023-01-29T13:12:03;18.25;;;8.23;;
32455;SDS011;18912;43.270;27.942;2023-01-29T13:14:41;15.48;;;7.45;;
32455;SDS011;18912;43.270;27.942;2023-01-29T13:17:34;16.67;;;7.88;;
32455;SDS011;18912;43.270;27.942;2023-01-29T13:20:12;19.27;;;7.55;;
32455;SDS011;18912;43.270;27.942;2023-01-29T13:22:39;17.02;;;8.02;;
32455;SDS011;18912;43.270;27.942;2023-01-29T13:25:11;16.88;;;7.70;;
32455;SDS011;18912;43.270;27.942;2023-01-29T13:27:41;15.52;;;7.57;;
32455;SDS011;18912;43.270;27.942;2023-01-29T13:30:21;20.02;;;7.43;;
32455;SDS011;18912;43.270;27.942;2023-01-29T13:32:59;15.27;;;7.15;;
32455;SDS011;18912;43.270;27.942;2023-01-29T13:35:37;14.05;;;7.47;;
32455;SDS011;18912;43.270;27.942;2023-01-29T13:38:15;18.02;;;7.60;;
32455;SDS011;18912;43.270;27.942;2023-01-29T13:40:50;15.50;;;6.90;;
32455;SDS011;18912;43.270;27.942;2023-01-29T13:43:20;14.75;;;7.25;;
32455;SDS011;18912;43.270;27.942;2023-01-29T13:45:47;16.30;;;7.57;;
32455;SDS011;18912;43.270;27.942;2023-01-29T13:48:26;18.02;;;6.97;;
32455;SDS011;18912;43.270;27.942;2023-01-29T13:50:56;17.75;;;7.45;;
32455;SDS011;18912;43.270;27.942;2023-01-29T13:53:26;14.88;;;6.53;;
32455;SDS011;18912;43.270;27.942;2023-01-29T13:56:45;17.70;;;6.53;;
32455;SDS011;18912;43.270;27.942;2023-01-29T13:58:53;16.35;;;6.80;;
32455;SDS011;18912;43.270;27.942;2023-01-29T14:06:50;13.85;;;6.60;;
32455;SDS011;18912;43.270;27.942;2023-01-29T14:09:34;16.80;;;6.70;;
32455;SDS011;18912;43.270;27.942;2023-01-29T14:12:38;17.55;;;6.35;;
32455;SDS011;18912;43.270;27.942;2023-01-29T14:15:18;15.80;;;6.88;;
32455;SDS011;18912;43.270;27.942;2023-01-29T14:20:23;15.88;;;7.07;;
32455;SDS011;18912;43.270;27.942;2023-01-29T14:23:01;15.98;;;6.72;;
32455;SDS011;18912;43.270;27.942;2023-01-29T14:25:48;16.83;;;6.75;;
32455;SDS011;18912;43.270;27.942;2023-01-29T14:28:18;17.45;;;6.68;;
32455;SDS011;18912;43.270;27.942;2023-01-29T14:30:47;17.17;;;6.68;;
32455;SDS011;18912;43.270;27.942;2023-01-29T14:33:30;14.82;;;6.60;;
32455;SDS011;18912;43.270;27.942;2023-01-29T14:36:02;20.48;;;6.35;;
32455;SDS011;18912;43.270;27.942;2023-01-29T14:38:39;19.40;;;7.13;;
32455;SDS011;18912;43.270;27.942;2023-01-29T14:41:17;17.50;;;7.25;;
32455;SDS011;18912;43.270;27.942;2023-01-29T14:44:34;17.55;;;7.80;;
32455;SDS011;18912;43.270;27.942;2023-01-29T14:46:56;23.63;;;9.73;;
32455;SDS011;18912;43.270;27.942;2023-01-29T14:52:15;18.10;;;7.65;;
32455;SDS011;18912;43.270;27.942;2023-01-29T14:54:45;18.10;;;8.23;;
32455;SDS011;18912;43.270;27.942;2023-01-29T14:57:13;15.60;;;7.00;;
32455;SDS011;18912;43.270;27.942;2023-01-29T15:02:42;17.58;;;7.20;;
32455;SDS011;18912;43.270;27.942;2023-01-29T15:05:15;22.05;;;7.68;;
32455;SDS011;18912;43.270;27.942;2023-01-29T15:10:20;22.92;;;8.32;;
32455;SDS011;18912;43.270;27.942;2023-01-29T15:15:51;19.80;;;8.82;;
32455;SDS011;18912;43.270;27.942;2023-01-29T15:18:36;18.98;;;7.53;;
32455;SDS011;18912;43.270;27.942;2023-01-29T15:21:11;17.90;;;7.70;;
32455;SDS011;18912;43.270;27.942;2023-01-29T15:26:21;19.42;;;7.93;;
32455;SDS011;18912;43.270;27.942;2023-01-29T15:28:55;28.52;;;10.18;;
32455;SDS011;18912;43.270;27.942;2023-01-29T15:31:22;17.85;;;8.30;;
32455;SDS011;18912;43.270;27.942;2023-01-29T15:33:49;23.08;;;9.60;;
32455;SDS011;18912;43.270;27.942;2023-01-29T15:36:18;23.08;;;9.02;;
32455;SDS011;18912;43.270;27.942;2023-01-29T15:38:47;25.08;;;8.75;;
32455;SDS011;18912;43.270;27.942;2023-01-29T15:41:15;23.80;;;7.95;;
32455;SDS011;18912;43.270;27.942;2023-01-29T15:43:44;22.33;;;9.13;;
32455;SDS011;18912;43.270;27.942;2023-01-29T15:46:13;21.67;;;9.60;;
32455;SDS011;18912;43.270;27.942;2023-01-29T15:48:45;21.70;;;9.02;;
32455;SDS011;18912;43.270;27.942;2023-01-29T15:51:23;20.75;;;9.07;;
32455;SDS011;18912;43.270;27.942;2023-01-29T15:54:09;23.63;;;9.10;;
32455;SDS011;18912;43.270;27.942;2023-01-29T15:56:40;22.80;;;8.05;;
32455;SDS011;18912;43.270;27.942;2023-01-29T15:59:15;26.55;;;8.95;;
32455;SDS011;18912;43.270;27.942;2023-01-29T16:01:44;24.05;;;10.00;;
32455;SDS011;18912;43.270;27.942;2023-01-29T16:04:11;20.73;;;9.18;;
32455;SDS011;18912;43.270;27.942;2023-01-29T16:06:41;18.95;;;8.27;;
32455;SDS011;18912;43.270;27.942;2023-01-29T16:09:09;19.15;;;8.48;;
32455;SDS011;18912;43.270;27.942;2023-01-29T16:11:44;22.80;;;8.93;;
32455;SDS011;18912;43.270;27.942;2023-01-29T16:14:13;24.27;;;9.60;;
32455;SDS011;18912;43.270;27.942;2023-01-29T16:16:43;21.35;;;9.13;;
32455;SDS011;18912;43.270;27.942;2023-01-29T16:19:12;19.88;;;8.85;;
32455;SDS011;18912;43.270;27.942;2023-01-29T16:21:44;21.73;;;9.30;;
32455;SDS011;18912;43.270;27.942;2023-01-29T16:24:11;23.90;;;9.77;;
32455;SDS011;18912;43.270;27.942;2023-01-29T16:26:43;24.52;;;10.50;;
32455;SDS011;18912;43.270;27.942;2023-01-29T16:29:16;24.00;;;9.20;;
32455;SDS011;18912;43.270;27.942;2023-01-29T16:31:46;23.10;;;9.93;;
32455;SDS011;18912;43.270;27.942;2023-01-29T16:34:16;27.55;;;9.68;;
32455;SDS011;18912;43.270;27.942;2023-01-29T16:36:52;23.17;;;10.30;;
32455;SDS011;18912;43.270;27.942;2023-01-29T16:39:23;23.20;;;9.15;;
32455;SDS011;18912;43.270;27.942;2023-01-29T16:42:37;20.92;;;9.23;;
32455;SDS011;18912;43.270;27.942;2023-01-29T16:47:58;24.13;;;8.95;;
32455;SDS011;18912;43.270;27.942;2023-01-29T16:53:10;25.10;;;9.95;;
32455;SDS011;18912;43.270;27.942;2023-01-29T16:55:41;31.05;;;12.90;;
32455;SDS011;18912;43.270;27.942;2023-01-29T17:01:09;21.92;;;9.20;;
32455;SDS011;18912;43.270;27.942;2023-01-29T17:03:35;25.63;;;9.20;;
32455;SDS011;18912;43.270;27.942;2023-01-29T17:06:08;24.00;;;9.63;;
32455;SDS011;18912;43.270;27.942;2023-01-29T17:08:35;21.77;;;8.90;;
32455;SDS011;18912;43.270;27.942;2023-01-29T17:11:02;22.00;;;8.82;;
32455;SDS011;18912;43.270;27.942;2023-01-29T17:13:50;25.30;;;8.93;;
32455;SDS011;18912;43.270;27.942;2023-01-29T17:16:28;20.13;;;8.30;;
32455;SDS011;18912;43.270;27.942;2023-01-29T17:18:55;19.55;;;8.07;;
32455;SDS011;18912;43.270;27.942;2023-01-29T17:23:48;19.98;;;8.30;;
32455;SDS011;18912;43.270;27.942;2023-01-29T17:26:14;19.85;;;8.43;;
32455;SDS011;18912;43.270;27.942;2023-01-29T17:28:40;18.33;;;7.38;;